Time;durP1;ratioP1;P1;durP2;ratioP2;P2;SDS_P1;SDS_P2;PMS_P1;PMS_P2;Temp;Humidity;BMP_temperature;BMP_pressure;BME280_temperature;BME280_humidity;BME280_pressure;Samples;Min_cycle;Max_cycle;Signal;HPM_P1;HPM_P2
2022/06/20 00:01:42;;;;;;;4.45;1.63;;;;;;;23.35;42.22;101445.06;5066464;28;20127;-88
2022/06/20 00:04:14;;;;;;;2.75;1.85;;;;;;;23.28;42.38;101444.97;5061905;28;20037;-90
2022/06/20 00:06:40;;;;;;;1.83;1.40;;;;;;;23.34;42.50;101454.88;5064081;28;20036;-90
2022/06/20 00:09:05;;;;;;;2.17;1.30;;;;;;;23.27;42.35;101453.94;5060831;28;20036;-90
2022/06/20 00:11:38;;;;;;;2.33;1.40;;;;;;;23.38;42.36;101461.44;5065517;28;20053;-90
2022/06/20 00:14:04;;;;;;;2.45;1.50;;;;;;;23.28;42.70;101468.06;5063655;28;21041;-90
2022/06/20 00:16:33;;;;;;;3.28;1.60;;;;;;;23.28;42.48;101470.72;5064204;28;20052;-90
2022/06/20 00:18:59;;;;;;;2.70;1.52;;;;;;;23.32;42.45;101459.53;5058859;28;20033;-90
2022/06/20 00:21:25;;;;;;;2.72;1.35;;;;;;;23.30;42.54;101421.69;5068109;28;21971;-90
2022/06/20 00:23:51;;;;;;;4.00;1.70;;;;;;;23.28;42.85;101430.88;5060591;28;20048;-89
2022/06/20 00:26:17;;;;;;;2.30;1.30;;;;;;;23.32;42.40;101434.78;5063970;28;20032;-90
2022/06/20 00:28:44;;;;;;;1.98;1.52;;;;;;;23.28;42.21;101417.56;5066453;28;20045;-90
2022/06/20 00:31:11;;;;;;;3.75;1.48;;;;;;;23.34;42.63;101424.78;5064865;28;20029;-90
2022/06/20 00:33:36;;;;;;;2.33;1.60;;;;;;;23.24;42.93;101427.75;5063367;28;20574;-91
2022/06/20 00:36:02;;;;;;;2.95;1.65;;;;;;;23.15;42.96;101427.03;5067709;28;20048;-92
2022/06/20 00:38:28;;;;;;;2.47;1.30;;;;;;;23.18;42.92;101426.69;5068838;28;20040;-91
2022/06/20 00:40:57;;;;;;;2.22;1.20;;;;;;;23.22;42.82;101416.50;5068989;28;20390;-91
2022/06/20 00:43:33;;;;;;;3.22;1.42;;;;;;;23.26;42.71;101411.63;5065963;28;20020;-91
2022/06/20 00:46:04;;;;;;;1.80;1.20;;;;;;;23.27;42.59;101418.59;5066363;28;20028;-91
2022/06/20 00:48:37;;;;;;;2.33;1.38;;;;;;;23.27;42.85;101419.41;5049518;28;20430;-91
2022/06/20 00:51:14;;;;;;;1.70;1.15;;;;;;;23.26;42.87;101420.41;5068133;28;20033;-92
2022/06/20 00:53:46;;;;;;;2.67;1.30;;;;;;;23.32;42.81;101429.47;5063170;28;20056;-91
2022/06/20 00:56:21;;;;;;;1.55;1.23;;;;;;;23.29;42.59;101437.81;5063983;28;20048;-92
2022/06/20 00:58:58;;;;;;;2.30;1.60;;;;;;;23.06;43.07;101444.09;5069741;28;20055;-91
2022/06/20 01:01:32;;;;;;;2.45;1.45;;;;;;;23.24;42.60;101453.50;5070303;28;20028;-92
2022/06/20 01:04:03;;;;;;;2.92;1.30;;;;;;;23.30;42.77;101469.50;5069003;28;20081;-92
2022/06/20 01:06:35;;;;;;;1.23;0.88;;;;;;;23.30;42.31;101466.84;5070214;28;20037;-92
2022/06/20 01:09:09;;;;;;;3.55;1.45;;;;;;;23.20;42.76;101451.22;5064931;28;20048;-91
2022/06/20 01:11:46;;;;;;;1.25;1.10;;;;;;;23.19;42.59;101448.75;5069874;28;20085;-91
2022/06/20 01:14:34;;;;;;;3.22;1.70;;;;;;;23.32;42.31;101448.06;5067544;28;20043;-87
2022/06/20 01:17:03;;;;;;;2.30;1.35;;;;;;;23.24;42.43;101426.94;5058741;28;20493;-86
2022/06/20 01:19:46;;;;;;;1.92;1.50;;;;;;;23.27;42.68;101450.47;5061642;28;20040;-87
2022/06/20 01:22:29;;;;;;;1.38;1.20;;;;;;;23.21;42.84;101441.44;5057367;28;20086;-87
2022/06/20 01:25:12;;;;;;;1.95;1.17;;;;;;;23.24;42.68;101442.88;5060066;28;20071;-86
2022/06/20 01:27:42;;;;;;;2.00;1.55;;;;;;;23.19;42.70;101448.75;5058343;28;20052;-86
2022/06/20 01:30:08;;;;;;;2.90;1.45;;;;;;;23.25;42.91;101455.97;5060472;28;20032;-86
2022/06/20 01:32:34;;;;;;;3.33;1.45;;;;;;;23.21;42.90;101450.22;5062560;28;20052;-87
2022/06/20 01:35:04;;;;;;;2.92;1.30;;;;;;;23.21;42.82;101444.09;5060337;28;20125;-86
2022/06/20 01:37:34;;;;;;;2.25;1.80;;;;;;;23.16;42.84;101444.66;5060921;28;20040;-86
2022/06/20 01:40:09;;;;;;;1.48;1.20;;;;;;;23.24;42.53;101445.53;5061837;28;20059;-86
2022/06/20 01:42:36;;;;;;;4.13;1.27;;;;;;;23.10;42.67;101436.59;5061685;28;20036;-87
2022/06/20 01:48:15;;;;;;;1.85;1.45;;;;;;;23.22;42.75;101456.34;5059325;28;20132;-87
2022/06/20 01:50:42;;;;;;;2.53;1.35;;;;;;;23.07;43.05;101448.41;5056398;28;20044;-86
2022/06/20 01:53:11;;;;;;;2.97;1.50;;;;;;;23.11;42.71;101441.72;5055041;28;20487;-87
2022/06/20 01:55:39;;;;;;;1.48;1.10;;;;;;;23.10;43.09;101432.09;5060562;28;20047;-86
2022/06/20 01:58:13;;;;;;;1.55;0.98;;;;;;;23.21;42.93;101442.25;5063249;28;20040;-87
2022/06/20 02:00:39;;;;;;;1.83;1.40;;;;;;;23.17;42.88;101437.50;5062635;28;20036;-84
2022/06/20 02:03:09;;;;;;;1.55;1.30;;;;;;;23.12;42.77;101430.06;5061705;28;20064;-86
2022/06/20 02:05:35;;;;;;;1.70;1.30;;;;;;;23.14;43.14;101440.50;5039210;28;20043;-86
2022/06/20 02:08:03;;;;;;;1.63;1.08;;;;;;;23.09;43.11;101448.22;5059689;28;20044;-86
2022/06/20 02:10:35;;;;;;;3.25;1.70;;;;;;;23.18;42.81;101452.44;5057398;28;20033;-87
2022/06/20 02:13:01;;;;;;;1.77;1.33;;;;;;;23.11;42.75;101451.50;5058515;28;20427;-86
2022/06/20 02:15:31;;;;;;;1.50;1.15;;;;;;;23.03;42.80;101451.63;5056151;28;20602;-86
2022/06/20 02:17:59;;;;;;;2.72;1.50;;;;;;;23.11;42.73;101456.81;5059462;28;20055;-87
2022/06/20 02:20:28;;;;;;;1.67;1.35;;;;;;;23.17;42.83;101472.88;5061429;28;20051;-86
2022/06/20 02:22:56;;;;;;;2.00;1.20;;;;;;;23.15;42.70;101468.72;5060747;28;20046;-86
2022/06/20 02:25:30;;;;;;;1.40;1.25;;;;;;;23.11;42.89;101475.41;5054009;28;20494;-86
2022/06/20 02:28:05;;;;;;;2.08;1.50;;;;;;;23.16;43.00;101473.88;5056365;28;20147;-86
2022/06/20 02:30:31;;;;;;;2.70;1.40;;;;;;;23.11;42.92;101456.81;5057800;28;20123;-86
2022/06/20 02:33:10;;;;;;;1.30;1.20;;;;;;;23.12;42.91;101464.59;5058692;28;20115;-87
2022/06/20 02:35:35;;;;;;;2.33;1.40;;;;;;;23.07;42.90;101461.69;5058862;28;20165;-86
2022/06/20 02:38:01;;;;;;;2.70;1.48;;;;;;;23.09;42.91;101469.47;5058489;28;20061;-86
2022/06/20 02:40:29;;;;;;;1.60;1.40;;;;;;;23.02;42.78;101468.59;5058776;28;20036;-87
2022/06/20 02:43:18;;;;;;;2.50;1.13;;;;;;;23.14;43.09;101497.13;5057854;28;20066;-86
2022/06/20 02:45:44;;;;;;;3.33;1.80;;;;;;;23.03;43.07;101494.97;5040112;28;20280;-86
2022/06/20 02:48:11;;;;;;;2.55;1.38;;;;;;;23.13;42.76;101498.13;5033868;28;20028;-87
2022/06/20 02:50:50;;;;;;;1.73;1.10;;;;;;;23.12;42.86;101493.84;5039263;28;20068;-86
2022/06/20 02:53:21;;;;;;;1.90;1.42;;;;;;;23.14;43.02;101496.31;5060847;28;20429;-86
2022/06/20 02:55:48;;;;;;;1.58;1.40;;;;;;;23.16;42.70;101495.13;5054466;28;20391;-86
2022/06/20 02:58:25;;;;;;;1.67;1.40;;;;;;;23.10;43.02;101490.53;5059837;28;20047;-86
2022/06/20 03:01:15;;;;;;;1.27;1.10;;;;;;;23.08;42.86;101481.94;5055752;28;20100;-86
2022/06/20 03:03:46;;;;;;;1.80;1.45;;;;;;;23.08;43.09;101467.84;5059429;28;20143;-86
2022/06/20 03:06:21;;;;;;;3.03;1.60;;;;;;;23.00;43.21;101457.31;5056776;28;20054;-86
2022/06/20 03:08:46;;;;;;;1.95;1.30;;;;;;;23.06;43.06;101460.06;5056987;28;20523;-86
2022/06/20 03:11:12;;;;;;;1.55;1.13;;;;;;;23.10;43.16;101466.63;5022379;28;20122;-85
2022/06/20 03:13:40;;;;;;;1.13;1.13;;;;;;;23.03;43.30;101463.09;5061263;28;20033;-85
2022/06/20 03:16:07;;;;;;;1.50;1.30;;;;;;;23.10;43.02;101461.31;5056105;28;20028;-85
2022/06/20 03:18:41;;;;;;;1.55;1.00;;;;;;;23.09;42.90;101459.66;5055426;28;20036;-86
2022/06/20 03:21:07;;;;;;;1.33;1.17;;;;;;;23.10;42.85;101456.00;5040334;28;20105;-85
2022/06/20 03:23:34;;;;;;;1.52;1.15;;;;;;;23.11;43.02;101456.81;5063291;28;20041;-86
2022/06/20 03:26:03;;;;;;;1.48;1.38;;;;;;;23.09;43.13;101459.66;5061081;28;20082;-86
2022/06/20 03:28:31;;;;;;;1.80;1.47;;;;;;;23.10;42.87;101461.31;5041354;28;20092;-86
2022/06/20 03:30:58;;;;;;;1.73;1.40;;;;;;;23.19;42.69;101462.88;5042861;28;20039;-86
2022/06/20 03:33:24;;;;;;;2.15;1.10;;;;;;;23.13;42.93;101460.94;5060994;28;20485;-85
2022/06/20 03:35:55;;;;;;;1.30;1.20;;;;;;;23.04;42.93;101453.28;5043488;28;20091;-86
2022/06/20 03:38:22;;;;;;;1.35;1.20;;;;;;;23.09;43.11;101456.19;5061965;28;20040;-86
2022/06/20 03:40:49;;;;;;;1.17;1.08;;;;;;;23.07;42.91;101456.38;5063184;28;20124;-86
2022/06/20 03:43:19;;;;;;;2.00;1.20;;;;;;;23.05;43.11;101446.97;5063525;28;20049;-86
2022/06/20 03:45:48;;;;;;;;;;;;;;;23.09;42.90;101459.66;5045669;28;20036;-87
2022/06/20 03:48:18;;;;;;;2.10;1.67;;;;;;;23.11;42.94;101454.16;5059729;28;19917;-86
2022/06/20 03:50:51;;;;;;;1.75;1.30;;;;;;;23.08;43.21;101458.03;5065227;28;20610;-86
2022/06/20 03:53:26;;;;;;;1.38;1.27;;;;;;;23.06;43.06;101461.88;5059853;28;20478;-86
2022/06/20 03:56:01;;;;;;;1.25;1.15;;;;;;;23.06;43.00;101454.75;5045868;28;20043;-86
2022/06/20 03:58:29;;;;;;;1.40;1.30;;;;;;;23.08;42.67;101450.06;5063520;28;20040;-86
2022/06/20 04:01:07;;;;;;;3.25;1.42;;;;;;;23.09;42.65;101453.53;5061066;28;20028;-86
2022/06/20 04:03:41;;;;;;;1.63;1.25;;;;;;;23.08;43.11;101446.56;5061640;28;20036;-86
2022/06/20 04:06:25;;;;;;;2.40;1.33;;;;;;;23.11;42.79;101455.00;5061698;28;20410;-86
2022/06/20 04:11:58;;;;;;;1.98;1.50;;;;;;;23.08;43.05;101455.38;5041692;28;20104;-86
2022/06/20 04:14:47;;;;;;;1.50;1.25;;;;;;;23.10;43.01;101449.88;5044107;28;20032;-86
2022/06/20 04:20:31;;;;;;;1.33;1.15;;;;;;;23.16;42.90;101455.28;5062650;28;20468;-86
2022/06/20 04:23:01;;;;;;;2.45;1.40;;;;;;;23.12;42.79;101435.38;5062297;28;20040;-86
2022/06/20 04:25:30;;;;;;;;;;;;;;;23.11;42.83;101440.88;5062609;28;20714;-86
2022/06/20 04:28:32;;;;;;;1.40;1.30;;;;;;;23.08;42.82;101443.94;5064149;28;20518;-86
2022/06/20 04:31:18;;;;;;;2.28;1.35;;;;;;;23.16;42.58;101444.66;5062235;28;20040;-86
2022/06/20 04:34:09;;;;;;;2.00;1.42;;;;;;;23.15;42.72;101440.31;5062467;28;20041;-86
2022/06/20 04:36:54;;;;;;;1.92;1.38;;;;;;;23.19;42.63;101440.78;5062785;28;20051;-86
2022/06/20 04:39:37;;;;;;;2.90;1.50;;;;;;;23.15;42.75;101440.31;5062277;28;20032;-86
2022/06/20 04:42:29;;;;;;;2.13;1.67;;;;;;;23.10;42.96;101428.63;5060780;28;20036;-86
2022/06/20 04:44:57;;;;;;;2.70;1.60;;;;;;;23.15;42.65;101418.25;5061830;28;20187;-85
2022/06/20 04:47:36;;;;;;;2.08;1.40;;;;;;;23.20;42.62;101424.66;5042625;28;20118;-85
2022/06/20 04:50:02;;;;;;;1.73;1.30;;;;;;;23.17;42.52;101411.75;5059842;28;20032;-84
2022/06/20 04:52:30;;;;;;;2.42;1.50;;;;;;;23.16;42.69;101425.19;5062497;28;20421;-84
2022/06/20 04:54:58;;;;;;;2.33;1.40;;;;;;;23.15;42.42;101415.59;5059305;28;20039;-85
2022/06/20 04:57:26;;;;;;;2.33;1.58;;;;;;;23.12;42.49;101411.47;5058106;28;20130;-85
2022/06/20 04:59:56;;;;;;;2.15;1.58;;;;;;;23.11;42.50;101399.22;5060671;28;20803;-85
2022/06/20 05:02:22;;;;;;;1.30;1.20;;;;;;;23.13;42.55;101407.81;5059960;28;20032;-84
2022/06/20 05:04:50;;;;;;;1.60;1.40;;;;;;;23.17;42.46;101405.63;5060284;28;20131;-84
2022/06/20 05:07:23;;;;;;;2.03;1.33;;;;;;;23.19;42.45;101409.72;5060353;28;20035;-85
2022/06/20 05:10:04;;;;;;;2.47;1.70;;;;;;;23.22;42.75;101405.88;5060083;28;20680;-85
2022/06/20 05:12:49;;;;;;;2.00;1.58;;;;;;;23.16;42.67;101404.81;5058745;28;20044;-84
2022/06/20 05:15:23;;;;;;;2.25;1.20;;;;;;;23.13;42.47;101404.31;5060188;28;20303;-84
2022/06/20 05:17:50;;;;;;;3.38;1.50;;;;;;;23.17;42.79;101409.09;5057484;28;20024;-85
2022/06/20 05:20:33;;;;;;;1.65;1.40;;;;;;;23.22;42.45;101403.22;5060626;28;20036;-84
2022/06/20 05:23:11;;;;;;;1.73;1.40;;;;;;;23.20;42.74;101414.03;5057138;28;20029;-85
2022/06/20 05:25:38;;;;;;;1.75;1.50;;;;;;;23.13;42.64;101406.97;5042545;28;20747;-86
2022/06/20 05:28:10;;;;;;;2.05;1.33;;;;;;;23.18;42.68;101420.56;5043907;28;20056;-85
2022/06/20 05:30:37;;;;;;;1.35;1.20;;;;;;;23.19;42.51;101423.03;5060712;28;20124;-85
2022/06/20 05:33:23;;;;;;;1.42;1.23;;;;;;;23.11;42.67;101423.13;5057272;28;20053;-85
2022/06/20 05:35:59;;;;;;;1.38;1.27;;;;;;;23.21;42.31;101426.31;5059308;28;20079;-84
2022/06/20 05:38:32;;;;;;;1.90;1.30;;;;;;;23.14;42.55;101424.56;5058518;28;20032;-85
2022/06/20 05:41:01;;;;;;;1.38;1.20;;;;;;;23.13;42.66;101428.25;5041697;28;20033;-85
2022/06/20 05:43:29;;;;;;;2.65;1.80;;;;;;;23.25;42.47;101431.25;5062205;28;20402;-85
2022/06/20 05:46:03;;;;;;;1.42;1.30;;;;;;;23.16;42.47;101420.75;5061327;28;20044;-85
2022/06/20 05:48:39;;;;;;;2.15;1.38;;;;;;;23.23;42.41;101439.41;5063188;28;20513;-84
2022/06/20 05:51:06;;;;;;;1.85;1.45;;;;;;;23.20;42.77;101445.91;5059561;28;20052;-84
2022/06/20 05:53:44;;;;;;;1.63;1.48;;;;;;;23.16;42.53;101447.31;5043592;28;20120;-85
2022/06/20 05:56:26;;;;;;;2.53;1.38;;;;;;;23.10;42.89;101445.38;5042731;28;20037;-85
2022/06/20 05:58:54;;;;;;;2.08;1.38;;;;;;;23.13;42.56;101450.31;5062129;28;20490;-85
2022/06/20 06:01:30;;;;;;;1.40;1.30;;;;;;;23.24;42.77;101443.72;5063834;28;20044;-85
2022/06/20 06:04:02;;;;;;;1.88;1.38;;;;;;;23.20;42.59;101447.75;5059983;28;20120;-85
2022/06/20 06:06:39;;;;;;;1.73;1.50;;;;;;;23.27;42.41;101453.13;5057893;28;20044;-85
2022/06/20 06:09:16;;;;;;;1.40;1.30;;;;;;;23.37;42.22;101462.47;5061835;28;20730;-85
2022/06/20 06:12:05;;;;;;;1.52;1.42;;;;;;;23.23;42.80;101457.19;5062753;28;20045;-84
2022/06/20 06:14:34;;;;;;;1.87;1.50;;;;;;;23.24;42.67;101464.13;5063855;28;20474;-84
2022/06/20 06:17:10;;;;;;;1.48;1.38;;;;;;;23.28;42.56;101466.22;5066772;28;20124;-84
2022/06/20 06:19:48;;;;;;;1.23;1.23;;;;;;;23.25;42.26;101465.78;5038969;28;20028;-84
2022/06/20 06:22:19;;;;;;;1.00;1.00;;;;;;;23.23;42.59;101471.28;5063674;28;20078;-85
2022/06/20 06:24:46;;;;;;;1.52;1.25;;;;;;;23.34;42.59;101477.94;5045138;28;20440;-86
2022/06/20 06:27:31;;;;;;;1.58;1.48;;;;;;;23.32;42.57;101474.66;5059367;28;20390;-86
2022/06/20 06:30:05;;;;;;;2.03;1.65;;;;;;;23.34;42.37;101477.94;5063172;28;20039;-87
2022/06/20 06:32:36;;;;;;;1.67;1.40;;;;;;;23.26;42.63;101478.06;5057381;28;20143;-86
2022/06/20 06:35:11;;;;;;;1.83;1.70;;;;;;;23.29;42.67;101475.03;5055919;28;20036;-86
2022/06/20 06:37:55;;;;;;;3.20;1.83;;;;;;;23.37;42.40;101480.25;5057573;28;20028;-86
2022/06/20 06:40:46;;;;;;;2.95;1.80;;;;;;;23.36;42.48;101467.97;5061135;28;20664;-86
2022/06/20 06:43:28;;;;;;;1.90;1.42;;;;;;;23.38;42.24;101473.91;5058894;28;20526;-88
2022/06/20 06:45:57;;;;;;;1.48;1.33;;;;;;;23.42;42.32;101483.97;5058751;28;20391;-86
2022/06/20 06:48:29;;;;;;;2.90;1.67;;;;;;;23.36;42.44;101474.09;5065267;28;20032;-87
2022/06/20 06:51:02;;;;;;;3.05;1.80;;;;;;;23.39;42.50;101481.69;5065015;28;20044;-89
2022/06/20 06:53:36;;;;;;;1.73;1.48;;;;;;;23.43;42.24;101477.66;5063102;28;20394;-89
2022/06/20 06:56:23;;;;;;;1.60;1.50;;;;;;;23.48;42.36;101482.41;5056982;28;20090;-86
2022/06/20 06:58:59;;;;;;;1.92;1.65;;;;;;;23.45;42.39;101496.88;5057800;28;20051;-84
2022/06/20 07:01:31;;;;;;;3.90;2.15;;;;;;;23.47;42.16;101486.88;5060209;28;20391;-86
2022/06/20 07:04:26;;;;;;;2.03;1.58;;;;;;;23.48;42.18;101499.16;5061458;28;20573;-86
2022/06/20 07:07:02;;;;;;;2.00;1.70;;;;;;;23.54;41.87;101494.94;5058118;28;20048;-85
2022/06/20 07:09:32;;;;;;;2.17;1.70;;;;;;;23.56;41.97;101484.13;5053248;28;20094;-85
2022/06/20 07:12:14;;;;;;;2.42;1.85;;;;;;;23.59;41.65;101481.13;5032281;28;20399;-85
2022/06/20 07:14:46;;;;;;;5.95;3.05;;;;;;;23.50;41.55;101472.38;5037149;28;20029;-85
2022/06/20 07:17:48;;;;;;;3.10;1.67;;;;;;;23.56;41.37;101490.25;5038047;28;20044;-86
2022/06/20 07:20:14;;;;;;;3.42;1.75;;;;;;;23.59;41.42;101484.59;5034020;28;20053;-85
2022/06/20 07:22:43;;;;;;;1.85;1.70;;;;;;;23.52;41.78;101502.28;5049984;28;20033;-85
2022/06/20 07:25:25;;;;;;;3.97;1.90;;;;;;;23.52;41.91;101489.00;5037138;28;20297;-87
2022/06/20 07:28:00;;;;;;;2.63;1.88;;;;;;;23.60;41.72;101493.41;5039909;28;20037;-87
2022/06/20 07:30:32;;;;;;;2.95;1.80;;;;;;;23.59;41.72;101499.72;5036937;28;20044;-87
2022/06/20 07:33:11;;;;;;;2.67;1.85;;;;;;;23.63;41.39;101490.34;5036376;28;20052;-87
2022/06/20 07:35:43;;;;;;;4.00;2.38;;;;;;;23.70;41.22;101494.75;5037808;28;20040;-84
2022/06/20 07:38:15;;;;;;;3.72;1.88;;;;;;;23.62;41.38;101489.53;5037366;28;20514;-84
2022/06/20 07:40:50;;;;;;;3.15;1.73;;;;;;;23.48;41.94;101496.50;5035132;28;20521;-81
2022/06/20 07:43:31;;;;;;;7.68;2.45;;;;;;;23.70;41.44;101499.25;5036499;28;20605;-82
2022/06/20 07:46:03;;;;;;;4.20;2.08;;;;;;;23.75;41.31;101507.47;5036775;28;20048;-82
2022/06/20 07:48:41;;;;;;;4.65;2.00;;;;;;;23.74;41.12;101503.16;5032890;28;20048;-82
2022/06/20 07:51:10;;;;;;;5.97;2.80;;;;;;;23.75;40.83;101504.81;5036458;28;20079;-82
2022/06/20 07:53:45;;;;;;;4.57;1.88;;;;;;;23.70;40.85;101512.53;5038324;28;20093;-82
2022/06/20 07:56:22;;;;;;;3.90;2.20;;;;;;;23.71;40.98;101506.22;5031511;28;20043;-82
2022/06/20 07:58:54;;;;;;;3.22;2.20;;;;;;;23.68;41.29;101504.72;5037185;28;20033;-81
2022/06/20 08:01:29;;;;;;;4.15;2.22;;;;;;;23.71;41.15;101493.72;5034714;28;20120;-82
2022/06/20 08:04:02;;;;;;;7.22;2.50;;;;;;;23.69;41.37;101508.19;5034950;28;20036;-82
2022/06/20 08:06:43;;;;;;;4.53;2.50;;;;;;;23.70;41.42;101507.22;5037232;28;20083;-82
2022/06/20 08:09:19;;;;;;;4.60;2.45;;;;;;;23.71;41.33;101508.88;5038653;28;20033;-82
2022/06/20 08:11:57;;;;;;;3.47;2.20;;;;;;;23.77;40.89;101506.25;5045225;28;20761;-82
2022/06/20 08:14:30;;;;;;;5.38;2.08;;;;;;;23.73;40.99;101510.31;5058487;28;20048;-84
2022/06/20 08:17:02;;;;;;;4.80;2.17;;;;;;;23.72;40.89;101513.16;5059181;28;20113;-83
2022/06/20 08:19:29;;;;;;;4.80;2.15;;;;;;;23.79;40.59;101511.38;5058638;28;20037;-83
2022/06/20 08:22:20;;;;;;;3.50;2.30;;;;;;;23.76;40.79;101498.47;5063439;28;20109;-83
2022/06/20 08:24:53;;;;;;;;;;;;;;;23.68;41.05;101499.41;5059805;28;20039;-82
2022/06/20 08:27:43;;;;;;;10.43;2.60;;;;;;;23.54;41.65;101513.56;5056977;28;20286;-91
2022/06/20 08:30:15;;;;;;;4.07;2.00;;;;;;;23.37;40.89;101520.09;5025939;28;20036;-81
2022/06/20 08:32:58;;;;;;;5.72;2.20;;;;;;;23.73;39.64;101520.94;5045008;28;20064;-87
2022/06/20 08:35:33;;;;;;;5.70;2.10;;;;;;;24.18;38.73;101528.72;5060183;28;20055;-85
2022/06/20 08:38:11;;;;;;;5.00;2.20;;;;;;;23.89;38.87;101519.88;5058611;28;20085;-84
2022/06/20 08:41:03;;;;;;;3.85;2.22;;;;;;;24.22;37.63;101519.34;5060586;28;20047;-83
2022/06/20 08:43:59;;;;;;;5.28;2.28;;;;;;;24.19;37.63;101525.88;5039769;28;20044;-84
2022/06/20 08:47:02;;;;;;;5.30;1.92;;;;;;;24.22;37.39;101525.47;5052667;28;20786;-89
2022/06/20 08:50:02;;;;;;;4.95;2.00;;;;;;;24.34;37.39;101521.31;5060050;28;20032;-88
2022/06/20 08:52:39;;;;;;;;;;;;;;;24.42;36.74;101525.69;5060122;28;20048;-81
2022/06/20 08:55:14;;;;;;;5.68;2.30;;;;;;;24.01;37.21;101529.00;4998313;28;19920;-83
2022/06/20 08:57:43;;;;;;;5.85;2.17;;;;;;;24.09;36.53;101536.84;5058357;28;20143;-81
2022/06/20 09:01:26;;;;;;;4.68;2.20;;;;;;;24.33;36.23;101538.31;5091547;27;20138;-67
2022/06/20 09:04:27;;;;;;;2.05;1.63;;;;;;;24.24;36.44;101536.78;5129511;27;20038;-67
2022/06/20 09:07:11;;;;;;;5.03;2.08;;;;;;;24.32;36.58;101552.63;5092643;27;20042;-67
2022/06/20 09:09:55;;;;;;;3.83;2.20;;;;;;;24.43;36.33;101553.16;5136997;27;20027;-66
2022/06/20 09:12:50;;;;;;;3.63;2.22;;;;;;;24.47;36.06;101549.06;5123662;27;20093;-67
2022/06/20 09:15:24;;;;;;;4.50;2.10;;;;;;;24.60;36.26;101554.50;5083020;27;20909;-70
2022/06/20 09:18:13;;;;;;;3.67;2.13;;;;;;;24.49;36.80;101558.50;5135859;27;20142;-66
2022/06/20 09:20:46;;;;;;;5.07;2.13;;;;;;;24.35;37.03;101557.56;5097406;27;20073;-67
2022/06/20 09:23:40;;;;;;;4.63;1.95;;;;;;;24.21;36.62;101544.31;5134728;27;20046;-68
2022/06/20 09:26:54;;;;;;;3.70;2.25;;;;;;;24.51;36.40;101545.81;5091419;27;20051;-66
2022/06/20 09:29:41;;;;;;;8.15;2.42;;;;;;;24.63;35.99;101544.28;5029746;28;20172;-66
2022/06/20 09:32:16;;;;;;;4.05;2.40;;;;;;;23.95;36.52;101545.72;5015514;28;20803;-66
2022/06/20 09:35:00;;;;;;;3.33;2.22;;;;;;;24.22;35.51;101541.44;5099148;27;20047;-69
2022/06/20 09:37:57;;;;;;;5.68;2.35;;;;;;;24.55;35.17;101543.59;5132481;27;20039;-67
2022/06/20 09:40:29;;;;;;;2.63;2.00;;;;;;;24.65;35.60;101544.91;5092405;27;20829;-69
2022/06/20 09:43:21;;;;;;;3.15;1.83;;;;;;;24.67;35.47;101540.22;5116758;27;20369;-64
2022/06/20 09:46:03;;;;;;;3.13;1.90;;;;;;;24.50;35.91;101546.84;5094659;27;20035;-67
2022/06/20 09:48:46;;;;;;;3.47;2.28;;;;;;;24.43;35.93;101542.50;5132641;27;20038;-66
2022/06/20 09:51:26;;;;;;;4.55;2.03;;;;;;;24.53;35.69;101545.63;5095171;27;20067;-70
2022/06/20 09:54:02;;;;;;;;;;;;;;;23.90;36.64;101545.47;5137527;27;20057;-77
2022/06/20 09:56:37;;;;;;;5.30;1.95;;;;;;;24.28;35.52;101542.53;5093184;27;19937;-65
2022/06/20 09:59:22;;;;;;;5.40;1.70;;;;;;;24.41;34.94;101551.47;5129848;27;20115;-66
2022/06/20 10:02:24;;;;;;;2.83;1.70;;;;;;;24.30;34.97;101546.69;5088949;27;20054;-67
2022/06/20 10:05:16;;;;;;;2.47;1.75;;;;;;;24.50;34.58;101557.50;5111582;27;20045;-71
2022/06/20 10:07:51;;;;;;;2.88;1.55;;;;;;;24.47;34.55;101557.88;5126795;27;20035;-66
2022/06/20 10:10:31;;;;;;;4.55;2.10;;;;;;;24.24;35.30;101559.91;5089482;27;20588;-66
2022/06/20 10:13:02;;;;;;;;;;;;;;;24.27;35.25;101565.69;5120906;27;20090;-67
2022/06/20 10:15:37;;;;;;;6.78;2.42;;;;;;;24.48;35.08;101558.72;5072672;27;19915;-65
2022/06/20 10:18:21;;;;;;;4.38;2.55;;;;;;;24.60;35.05;101560.66;5100398;27;20162;-68
2022/06/20 10:21:16;;;;;;;6.30;1.98;;;;;;;24.56;35.12;101556.72;5075790;27;20508;-66
2022/06/20 10:24:07;;;;;;;3.40;1.88;;;;;;;24.52;35.30;101565.28;5108140;27;20139;-67
2022/06/20 10:26:35;;;;;;;7.55;3.00;;;;;;;24.57;35.19;101562.84;5085390;27;20035;-68
2022/06/20 10:29:25;;;;;;;5.55;2.20;;;;;;;24.33;35.60;101558.78;5110918;27;20035;-68
2022/06/20 10:32:12;;;;;;;5.88;2.42;;;;;;;24.49;35.32;101561.16;5076209;27;20039;-65
2022/06/20 10:35:27;;;;;;;4.97;2.38;;;;;;;24.52;35.75;101568.78;5117671;27;20076;-67
2022/06/20 10:38:00;;;;;;;3.22;2.10;;;;;;;24.53;35.40;101572.25;5051376;27;20051;-70
2022/06/20 10:40:49;;;;;;;3.92;1.75;;;;;;;24.55;35.06;101579.03;5057084;27;20023;-65
2022/06/20 10:43:46;;;;;;;3.15;1.92;;;;;;;24.55;35.20;101576.38;5119990;27;20046;-71
2022/06/20 10:46:40;;;;;;;3.47;2.10;;;;;;;24.58;35.25;101573.31;5058396;27;20135;-69
2022/06/20 10:49:21;;;;;;;9.38;2.15;;;;;;;24.16;35.77;101579.47;5112820;27;20039;-66
2022/06/20 10:52:07;;;;;;;4.40;2.03;;;;;;;24.24;34.52;101576.72;5075166;27;20035;-68
2022/06/20 10:54:43;;;;;;;6.25;2.20;;;;;;;23.94;36.01;101578.66;5112812;27;20067;-67
2022/06/20 10:57:56;;;;;;;4.00;2.10;;;;;;;24.33;36.28;101585.41;5069891;27;20549;-70
2022/06/20 11:00:26;;;;;;;5.32;2.15;;;;;;;24.49;35.91;101589.63;5075494;27;20663;-68
2022/06/20 11:02:59;;;;;;;4.07;2.03;;;;;;;24.60;35.74;101592.59;5078845;27;20105;-66
2022/06/20 11:05:36;;;;;;;5.38;1.98;;;;;;;24.54;35.61;101596.03;5113693;27;20076;-69
2022/06/20 11:08:24;;;;;;;970.60;880.83;;;;;;;24.55;34.93;101594.19;5085999;27;20042;-72
2022/06/20 11:11:10;;;;;;;1146.20;999.90;;;;;;;24.44;34.64;101598.22;5108514;27;20043;-72
2022/06/20 11:13:49;;;;;;;1129.97;999.90;;;;;;;24.30;34.79;101596.44;5083888;27;20045;-71
2022/06/20 11:16:32;;;;;;;1169.78;999.90;;;;;;;24.41;34.79;101607.38;5117252;27;20118;-70
2022/06/20 11:19:28;;;;;;;1155.60;999.90;;;;;;;24.33;34.57;101607.53;5104571;27;20045;-70
2022/06/20 11:22:26;;;;;;;1168.28;999.90;;;;;;;24.41;34.57;101612.69;5083344;27;20280;-71
2022/06/20 11:25:05;;;;;;;1125.45;999.90;;;;;;;24.36;34.68;101601.81;5114496;27;20040;-71
2022/06/20 11:27:56;;;;;;;1166.13;999.90;;;;;;;24.37;34.84;101611.44;5085138;27;20069;-70
2022/06/20 11:30:35;;;;;;;1166.30;999.90;;;;;;;24.42;34.81;101613.56;5107279;27;20033;-74
2022/06/20 11:36:15;;;;;;;4.00;2.13;;;;;;;24.46;35.06;101613.97;5040636;28;20643;-67
2022/06/20 11:39:09;;;;;;;5.88;2.20;;;;;;;24.53;35.24;101622.84;5011598;28;20045;-73
2022/06/20 11:41:47;;;;;;;4.28;1.92;;;;;;;24.63;35.41;101610.84;5028385;28;20119;-78
2022/06/20 11:44:48;;;;;;;3.78;2.15;;;;;;;24.68;35.52;101623.59;5041622;28;20136;-78
2022/06/20 11:47:13;;;;;;;3.50;1.95;;;;;;;24.69;35.53;101623.41;5007136;28;20427;-73
2022/06/20 11:50:01;;;;;;;5.07;2.53;;;;;;;24.73;35.50;101610.50;5054826;28;20037;-73
2022/06/20 11:52:36;;;;;;;6.78;2.30;;;;;;;24.76;35.54;101619.94;5040942;28;20190;-73
2022/06/20 11:55:15;;;;;;;4.03;2.10;;;;;;;24.78;35.80;101621.44;5037323;28;20036;-73
2022/06/20 11:57:53;;;;;;;3.88;1.60;;;;;;;24.81;35.77;101622.88;5009028;28;20032;-74
2022/06/20 12:00:22;;;;;;;4.47;2.30;;;;;;;24.82;35.95;101617.34;5046701;28;20061;-74
2022/06/20 12:03:13;;;;;;;2.47;1.98;;;;;;;24.80;35.79;101613.25;5015313;28;20979;-73
2022/06/20 12:05:45;;;;;;;5.60;2.30;;;;;;;24.82;35.97;101621.84;5050252;28;20028;-74
2022/06/20 12:08:47;;;;;;;3.38;1.92;;;;;;;24.83;36.14;101615.50;5003343;28;20066;-74
2022/06/20 12:11:12;;;;;;;4.55;1.90;;;;;;;24.86;35.92;101626.59;5049746;28;20036;-74
2022/06/20 12:13:59;;;;;;;5.60;2.17;;;;;;;24.87;36.05;101622.09;5015185;28;20067;-74
2022/06/20 12:17:02;;;;;;;5.72;2.00;;;;;;;24.88;36.08;101626.41;5051066;28;20829;-74
2022/06/20 12:25:33;;;;;;;4.72;2.25;;;;;;;24.91;36.24;101637.47;5050213;28;20106;-74
2022/06/20 12:27:59;;;;;;;3.75;2.25;;;;;;;24.85;36.51;101629.47;5013158;28;20453;-74